Main page
METAR-TAF:

METAR-TAF

Airports :

Clark Field Municipal Airport

Stephenville, Texas, United States

latitude: 32-13N, longitude: 098-11W, elevation: 1322 ft

Current weather observation

The report was made 35 minutes ago, at 18:55 UTC
Wind 9 mph from the South/Southeast, varying between Southeast and South
Temperature 90°F
Humidity 46%
Pressure 29.95 in. Hg
Visibility: 10 miles
Clear sky

METAR: KSEP 151855Z AUTO 16008KT 130V190 10SM CLR 32/19 A2995 RMK AO2 T03150185

Time: 14:30 (19:30 UTC)


TAF: missing

Weather observations and forecasts of more than 4000 airports (METAR and TAF reports).

The available stations are represented by yellow and red dots on the map.

Hover mouse over dot to see the name of the station.

Then click to see weather observations and forecasts.

To change the map : click on the green buttons with a black cross to zoom in, on the green button with a dash to zoom out, or on the green arrows for adjacent maps.


METAR-TAF: